createdAt,value
2023-03-06T00:02:39.824Z,66.76
2023-03-06T00:07:43.300Z,62.54
2023-03-06T00:12:46.090Z,57.27
2023-03-06T00:17:48.850Z,56.87
2023-03-06T00:22:51.668Z,59.55
2023-03-06T00:27:54.638Z,66.53
2023-03-06T00:32:57.493Z,65.33
2023-03-06T00:38:00.629Z,60.89
2023-03-06T00:43:03.461Z,56.61
2023-03-06T00:48:06.565Z,56.93
2023-03-06T00:53:11.144Z,61.52
2023-03-06T00:58:14.323Z,67.21
2023-03-06T01:03:17.138Z,65.22
2023-03-06T01:08:19.864Z,59.25
2023-03-06T01:13:22.690Z,55.77
2023-03-06T01:18:25.423Z,59.34
2023-03-06T01:23:28.427Z,66.34
2023-03-06T01:28:31.582Z,65.16
2023-03-06T01:33:35.035Z,57.26
2023-03-06T01:38:37.964Z,57.34
2023-03-06T01:43:44.348Z,62.93
2023-03-06T01:48:48.852Z,68.23
2023-03-06T01:53:53.622Z,61.20
2023-03-06T01:58:59.295Z,56.86
2023-03-06T02:04:02.323Z,60.05
2023-03-06T02:09:06.841Z,66.51
2023-03-06T02:14:13.230Z,64.83
2023-03-06T02:19:47.005Z,59.97
2023-03-06T02:25:08.288Z,56.54
2023-03-06T02:30:15.310Z,62.83
2023-03-06T02:35:23.020Z,65.30
2023-03-06T02:40:26.407Z,62.14
2023-03-06T02:45:45.441Z,60.31
2023-03-06T02:50:49.123Z,56.03
2023-03-06T02:55:52.322Z,59.41
2023-03-06T03:00:55.092Z,65.01
2023-03-06T03:05:57.862Z,64.71
2023-03-06T03:11:01.564Z,61.08
2023-03-06T03:16:06.919Z,56.99
2023-03-06T03:21:11.763Z,60.50
2023-03-06T03:26:18.740Z,66.71
2023-03-06T03:31:21.731Z,64.38
2023-03-06T03:36:26.146Z,58.21
2023-03-06T03:41:28.982Z,57.33
2023-03-06T03:46:31.725Z,64.53
2023-03-06T03:51:34.544Z,63.63
2023-03-06T03:56:37.857Z,58.67
2023-03-06T04:01:40.669Z,58.84
2023-03-06T04:06:43.557Z,65.09
2023-03-06T04:11:46.234Z,60.54
2023-03-06T04:16:48.985Z,59.34
2023-03-06T04:21:51.758Z,65.21
2023-03-06T04:26:54.485Z,61.56
2023-03-06T04:31:57.258Z,58.57
2023-03-06T04:36:59.957Z,63.89
2023-03-06T04:42:02.718Z,64.29
2023-03-06T04:47:06.082Z,60.07
2023-03-06T04:52:09.184Z,60.47
2023-03-06T04:57:13.715Z,65.14
2023-03-06T05:02:17.716Z,61.85
2023-03-06T05:07:20.542Z,59.11
2023-03-06T05:12:23.749Z,63.14
2023-03-06T05:17:26.773Z,64.18
2023-03-06T05:22:29.469Z,60.16
2023-03-06T05:27:32.686Z,61.86
2023-03-06T05:32:36.015Z,64.45
2023-03-06T05:37:39.003Z,59.63
2023-03-06T05:42:42.309Z,59.53
2023-03-06T05:47:45.104Z,65.32
2023-03-06T05:52:47.867Z,64.12
2023-03-06T05:57:51.837Z,56.93
2023-03-06T06:02:54.661Z,56.92
2023-03-06T06:07:57.358Z,62.90
2023-03-06T06:13:00.456Z,57.07
2023-03-06T06:18:03.208Z,55.42
2023-03-06T06:23:05.980Z,61.64
2023-03-06T06:28:08.739Z,61.10
2023-03-06T06:33:11.431Z,54.09
2023-03-06T06:38:14.506Z,55.86
2023-03-06T06:43:17.267Z,55.35
2023-03-06T06:48:20.054Z,56.74
2023-03-06T06:53:23.203Z,57.73
2023-03-06T06:58:26.802Z,53.17
2023-03-06T07:03:29.611Z,53.22
2023-03-06T07:08:33.087Z,52.80
2023-03-06T07:13:36.548Z,52.08
2023-03-06T07:18:39.659Z,49.89
2023-03-06T07:23:42.476Z,48.23
2023-03-06T07:28:52.434Z,47.58
2023-03-06T07:33:56.243Z,46.60
2023-03-06T07:38:59.049Z,46.04
2023-03-06T07:44:02.397Z,44.27
2023-03-06T07:49:05.277Z,42.90
2023-03-06T07:54:08.041Z,40.20
2023-03-06T07:59:11.783Z,41.67
2023-03-06T08:04:14.533Z,39.60
2023-03-06T08:09:17.380Z,39.74
2023-03-06T08:14:20.109Z,38.07
2023-03-06T08:19:22.940Z,36.99
2023-03-06T08:24:26.605Z,36.23
2023-03-06T08:29:31.032Z,36.45
2023-03-06T08:34:34.987Z,35.67
2023-03-06T08:39:37.756Z,32.43
2023-03-06T08:44:40.493Z,32.59
2023-03-06T08:49:43.407Z,31.83
2023-03-06T08:54:46.774Z,31.99
2023-03-06T08:59:49.508Z,30.44
2023-03-06T09:04:52.308Z,30.96
2023-03-06T09:09:58.270Z,30.10
2023-03-06T09:15:03.850Z,29.90
2023-03-06T09:20:10.485Z,28.97
2023-03-06T09:25:18.281Z,28.77
2023-03-06T09:30:21.166Z,28.13
2023-03-06T09:35:23.964Z,26.24
2023-03-06T09:40:45.923Z,26.10
2023-03-06T09:45:48.699Z,25.13
2023-03-06T09:50:58.837Z,25.96
2023-03-06T09:56:24.517Z,26.63
2023-03-06T10:01:33.120Z,26.12
2023-03-06T10:06:55.925Z,25.81
2023-03-06T10:12:06.832Z,24.80
2023-03-06T10:17:18.030Z,25.54
2023-03-06T10:22:26.401Z,23.57
2023-03-06T10:27:49.106Z,22.39
2023-03-06T10:32:59.335Z,22.19
2023-03-06T10:38:21.102Z,22.28
2023-03-06T10:43:23.930Z,21.35
2023-03-06T10:48:29.668Z,19.56
2023-03-06T10:53:33.116Z,21.21
2023-03-06T10:58:35.952Z,20.06
2023-03-06T11:03:38.703Z,19.59
2023-03-06T11:08:44.646Z,18.11
2023-03-06T11:13:57.569Z,18.82
2023-03-06T11:19:07.194Z,17.19
2023-03-06T11:24:20.070Z,15.79
2023-03-06T11:29:30.261Z,16.02
2023-03-06T11:34:59.589Z,17.55
2023-03-06T11:40:11.576Z,17.90
2023-03-06T11:45:34.872Z,19.02
2023-03-06T11:50:46.137Z,19.99
2023-03-06T11:56:05.366Z,21.13
2023-03-06T12:01:45.743Z,20.56
2023-03-06T12:07:07.810Z,20.84
2023-03-06T12:12:38.555Z,20.08
2023-03-06T12:18:08.166Z,20.07
2023-03-06T12:23:16.919Z,19.84
2023-03-06T12:28:28.195Z,20.35
2023-03-06T12:33:41.292Z,20.06
2023-03-06T12:38:53.071Z,20.72
2023-03-06T12:44:23.764Z,20.62
2023-03-06T12:49:32.383Z,21.96
2023-03-06T12:54:39.880Z,19.92
2023-03-06T12:59:48.567Z,17.88
2023-03-06T13:05:03.659Z,17.25
2023-03-06T13:10:09.197Z,18.40
2023-03-06T13:15:42.913Z,19.96
2023-03-06T13:20:46.235Z,21.45
2023-03-06T13:25:50.609Z,21.96
2023-03-06T13:30:53.586Z,21.57
2023-03-06T13:35:58.601Z,21.91
2023-03-06T13:41:23.750Z,22.49
2023-03-06T13:46:35.746Z,23.23
2023-03-06T13:51:41.260Z,23.81
2023-03-06T13:57:12.191Z,24.53
2023-03-06T14:02:30.249Z,25.25
2023-03-06T14:07:40.087Z,26.07
2023-03-06T14:13:00.308Z,27.16
2023-03-06T14:18:07.928Z,28.29
2023-03-06T14:23:23.471Z,28.76
2023-03-06T14:28:29.600Z,29.56
2023-03-06T14:33:55.111Z,30.06
2023-03-06T14:39:20.458Z,31.13
2023-03-06T14:44:26.657Z,31.76
2023-03-06T14:49:29.561Z,30.50
2023-03-06T14:54:37.017Z,29.33
2023-03-06T14:59:49.089Z,29.01
2023-03-06T15:05:20.670Z,30.17
2023-03-06T15:10:33.594Z,30.39
2023-03-06T15:15:36.415Z,31.79
2023-03-06T15:20:43.965Z,33.32
2023-03-06T15:26:13.835Z,33.81
2023-03-06T15:31:27.955Z,33.58
2023-03-06T15:36:34.180Z,35.57
2023-03-06T15:41:39.157Z,36.56
2023-03-06T15:46:42.458Z,36.44
2023-03-06T15:51:45.279Z,35.18
2023-03-06T15:56:49.824Z,38.09
2023-03-06T16:01:53.377Z,41.03
2023-03-06T16:06:56.364Z,39.43
2023-03-06T16:11:59.657Z,38.81
2023-03-06T16:17:02.692Z,39.44
2023-03-06T16:22:05.566Z,39.24
2023-03-06T16:27:16.592Z,40.03
2023-03-06T16:32:19.374Z,41.04
2023-03-06T16:37:22.258Z,41.51
2023-03-06T16:42:25.677Z,42.67
2023-03-06T16:47:28.390Z,44.81
2023-03-06T16:52:31.142Z,47.05
2023-03-06T16:57:35.830Z,47.69
2023-03-06T17:02:39.564Z,48.63
2023-03-06T17:07:42.638Z,52.05
2023-03-06T17:12:45.776Z,50.13
2023-03-06T17:17:48.988Z,50.97
2023-03-06T17:22:51.837Z,52.85
2023-03-06T17:27:54.542Z,50.92
2023-03-06T17:32:58.404Z,53.37
2023-03-06T17:38:01.212Z,50.84
2023-03-06T17:43:04.132Z,59.18
2023-03-06T17:48:06.915Z,59.48
2023-03-06T17:53:09.628Z,58.58
2023-03-06T17:58:12.618Z,57.89
2023-03-06T18:03:15.401Z,62.44
2023-03-06T18:08:18.245Z,72.84
2023-03-06T18:13:22.145Z,66.49
2023-03-06T18:18:25.764Z,58.36
2023-03-06T18:23:28.473Z,52.08
2023-03-06T18:28:31.141Z,49.56
2023-03-06T18:33:34.471Z,54.38
2023-03-06T18:38:39.763Z,54.98
2023-03-06T18:43:42.849Z,55.02
2023-03-06T18:48:45.620Z,57.28
2023-03-06T18:53:49.062Z,66.37
2023-03-06T18:58:52.401Z,65.98
2023-03-06T19:03:55.199Z,51.72
2023-03-06T19:09:02.250Z,49.76
2023-03-06T19:14:05.220Z,53.23
2023-03-06T19:19:08.299Z,59.21
2023-03-06T19:24:14.174Z,57.70
2023-03-06T19:29:16.874Z,58.34
2023-03-06T19:34:19.680Z,59.24
2023-03-06T19:39:22.620Z,60.61
2023-03-06T19:44:25.352Z,59.72
2023-03-06T19:49:28.007Z,60.20
2023-03-06T19:54:32.492Z,61.39
2023-03-06T19:59:35.944Z,71.11
2023-03-06T20:04:39.100Z,69.62
2023-03-06T20:09:41.875Z,65.64
2023-03-06T20:14:46.390Z,58.92
2023-03-06T20:19:49.189Z,54.42
2023-03-06T20:24:52.499Z,56.87
2023-03-06T20:29:55.300Z,60.10
2023-03-06T20:34:57.997Z,60.94
2023-03-06T20:40:00.797Z,59.63
2023-03-06T20:45:03.915Z,57.24
2023-03-06T20:50:07.614Z,63.92
2023-03-06T20:55:10.857Z,74.79
2023-03-06T21:00:14.530Z,68.98
2023-03-06T21:05:17.210Z,62.62
2023-03-06T21:10:19.891Z,56.26
2023-03-06T21:15:27.082Z,56.89
2023-03-06T21:20:30.481Z,59.97
2023-03-06T21:25:33.892Z,69.42
2023-03-06T21:30:36.620Z,68.65
2023-03-06T21:35:41.436Z,62.39
2023-03-06T21:40:45.522Z,58.24
2023-03-06T21:45:52.738Z,55.39
2023-03-06T21:51:08.510Z,60.53
2023-03-06T21:56:12.739Z,66.51
2023-03-06T22:01:22.316Z,68.85
2023-03-06T22:06:27.362Z,63.46
2023-03-06T22:11:37.218Z,59.40
2023-03-06T22:16:39.917Z,55.18
2023-03-06T22:21:42.673Z,56.27
2023-03-06T22:26:45.623Z,57.28
2023-03-06T22:31:48.338Z,61.70
2023-03-06T22:36:51.256Z,71.17
2023-03-06T22:41:56.882Z,71.82
2023-03-06T22:46:59.644Z,63.28
2023-03-06T22:52:02.384Z,58.41
2023-03-06T22:57:05.183Z,56.50
2023-03-06T23:02:08.226Z,60.37
2023-03-06T23:07:10.909Z,67.16
2023-03-06T23:12:13.699Z,68.73
2023-03-06T23:17:16.644Z,63.80
2023-03-06T23:22:19.814Z,58.47
2023-03-06T23:27:22.738Z,56.30
2023-03-06T23:32:25.644Z,59.97
2023-03-06T23:37:28.424Z,61.06
2023-03-06T23:42:31.150Z,66.73
2023-03-06T23:47:34.538Z,73.51
2023-03-06T23:52:38.185Z,67.42
2023-03-06T23:57:40.862Z,59.98
